createdAt,value
2022-10-23T00:02:00.438Z,17.12
2022-10-23T00:04:26.809Z,17.13
2022-10-23T00:06:53.165Z,17.04
2022-10-23T00:09:19.525Z,17.04
2022-10-23T00:11:45.876Z,16.99
2022-10-23T00:14:12.252Z,17.03
2022-10-23T00:16:38.591Z,17.18
2022-10-23T00:19:05.020Z,17.21
2022-10-23T00:21:31.363Z,17.09
2022-10-23T00:23:57.853Z,17.05
2022-10-23T00:26:24.217Z,17.12
2022-10-23T00:28:50.580Z,17.00
2022-10-23T00:31:16.933Z,16.97
2022-10-23T00:33:43.309Z,16.92
2022-10-23T00:36:09.665Z,17.06
2022-10-23T00:38:36.016Z,16.96
2022-10-23T00:41:02.361Z,16.95
2022-10-23T00:43:28.719Z,16.96
2022-10-23T00:45:55.084Z,16.96
2022-10-23T00:48:21.457Z,16.90
2022-10-23T00:50:47.801Z,16.92
2022-10-23T00:53:14.199Z,16.90
2022-10-23T00:55:40.545Z,16.89
2022-10-23T00:58:06.908Z,16.87
2022-10-23T01:00:33.290Z,16.83
2022-10-23T01:02:59.649Z,16.83
2022-10-23T01:05:26.007Z,16.84
2022-10-23T01:07:52.365Z,16.79
2022-10-23T01:10:18.736Z,16.74
2022-10-23T01:12:45.081Z,16.67
2022-10-23T01:15:11.429Z,16.70
2022-10-23T01:17:39.693Z,16.66
2022-10-23T01:20:08.762Z,16.68
2022-10-23T01:22:35.135Z,16.76
2022-10-23T01:25:01.494Z,16.71
2022-10-23T01:27:27.853Z,16.74
2022-10-23T01:29:54.203Z,16.72
2022-10-23T01:32:20.565Z,16.74
2022-10-23T01:34:46.933Z,16.71
2022-10-23T01:37:13.312Z,16.69
2022-10-23T01:39:39.674Z,16.67
2022-10-23T01:42:06.055Z,16.69
2022-10-23T01:44:32.398Z,16.63
2022-10-23T01:46:58.756Z,16.60
2022-10-23T01:49:25.091Z,16.54
2022-10-23T01:51:51.449Z,16.48
2022-10-23T01:54:17.809Z,16.57
2022-10-23T01:56:44.178Z,16.53
2022-10-23T01:59:10.541Z,16.57
2022-10-23T02:01:37.013Z,16.58
2022-10-23T02:04:03.470Z,16.52
2022-10-23T02:06:29.824Z,16.54
2022-10-23T02:08:56.193Z,16.60
2022-10-23T02:11:22.557Z,16.50
2022-10-23T02:13:48.911Z,16.59
2022-10-23T02:16:15.267Z,16.48
2022-10-23T02:18:41.640Z,16.55
2022-10-23T02:21:07.989Z,16.53
2022-10-23T02:23:34.330Z,16.46
2022-10-23T02:26:00.693Z,16.44
2022-10-23T02:28:27.066Z,16.38
2022-10-23T02:30:53.417Z,16.28
2022-10-23T02:33:19.765Z,16.02
2022-10-23T02:35:46.126Z,16.08
2022-10-23T02:38:12.499Z,16.20
2022-10-23T02:40:38.865Z,16.13
2022-10-23T02:43:05.202Z,16.26
2022-10-23T02:45:31.593Z,16.17
2022-10-23T02:47:58.005Z,16.17
2022-10-23T02:50:24.369Z,16.31
2022-10-23T02:52:50.731Z,16.25
2022-10-23T02:55:17.085Z,16.18
2022-10-23T02:57:43.645Z,16.12
2022-10-23T03:00:10.286Z,16.09
2022-10-23T03:02:36.653Z,16.11
2022-10-23T03:05:03.004Z,16.07
2022-10-23T03:07:29.349Z,16.05
2022-10-23T03:09:55.716Z,15.98
2022-10-23T03:12:22.057Z,16.00
2022-10-23T03:14:48.435Z,16.01
2022-10-23T03:17:14.774Z,15.96
2022-10-23T03:19:41.142Z,16.01
2022-10-23T03:22:07.481Z,16.10
2022-10-23T03:24:33.845Z,16.17
2022-10-23T03:27:00.203Z,16.03
2022-10-23T03:29:26.555Z,15.86
2022-10-23T03:31:52.941Z,15.77
2022-10-23T03:34:19.277Z,15.67
2022-10-23T03:36:45.644Z,15.66
2022-10-23T03:39:12.003Z,15.61
2022-10-23T03:41:38.367Z,15.63
2022-10-23T03:46:35.978Z,15.60
2022-10-23T03:49:02.344Z,15.60
2022-10-23T03:51:28.726Z,15.64
2022-10-23T03:53:55.092Z,15.71
2022-10-23T03:56:21.429Z,15.72
2022-10-23T03:58:47.811Z,15.67
2022-10-23T04:01:14.237Z,15.63
2022-10-23T04:03:40.633Z,15.76
2022-10-23T04:06:06.983Z,15.92
2022-10-23T04:08:33.341Z,15.64
2022-10-23T04:10:59.745Z,15.45
2022-10-23T04:13:26.107Z,15.42
2022-10-23T04:15:52.471Z,15.48
2022-10-23T04:18:18.852Z,15.48
2022-10-23T04:20:45.219Z,15.46
2022-10-23T04:23:11.625Z,15.40
2022-10-23T04:25:38.041Z,15.45
2022-10-23T04:28:04.409Z,15.41
2022-10-23T04:30:30.787Z,15.50
2022-10-23T04:32:57.144Z,15.40
2022-10-23T04:35:23.515Z,15.36
2022-10-23T04:37:49.867Z,15.42
2022-10-23T04:40:16.221Z,15.40
2022-10-23T04:42:42.794Z,15.44
2022-10-23T04:45:09.346Z,15.49
2022-10-23T04:47:35.707Z,15.45
2022-10-23T04:50:02.066Z,15.36
2022-10-23T04:52:28.442Z,15.36
2022-10-23T04:54:54.794Z,15.35
2022-10-23T04:57:21.144Z,15.36
2022-10-23T04:59:47.498Z,15.30
2022-10-23T05:02:13.844Z,15.28
2022-10-23T05:04:40.213Z,15.36
2022-10-23T05:07:06.572Z,15.37
2022-10-23T05:09:32.943Z,15.34
2022-10-23T05:11:59.305Z,15.36
2022-10-23T05:14:25.665Z,15.34
2022-10-23T05:16:52.019Z,15.38
2022-10-23T05:19:21.953Z,15.36
2022-10-23T05:21:50.577Z,15.42
2022-10-23T05:24:16.945Z,15.42
2022-10-23T05:26:43.308Z,15.42
2022-10-23T05:29:09.659Z,15.49
2022-10-23T05:31:36.019Z,15.45
2022-10-23T05:34:02.393Z,15.47
2022-10-23T05:36:28.754Z,15.45
2022-10-23T05:38:55.142Z,15.43
2022-10-23T05:41:21.491Z,15.39
2022-10-23T05:43:47.880Z,15.44
2022-10-23T05:46:14.257Z,15.41
2022-10-23T05:48:40.619Z,15.38
2022-10-23T05:51:06.995Z,15.36
2022-10-23T05:53:34.561Z,15.29
2022-10-23T05:56:02.543Z,15.24
2022-10-23T05:58:28.933Z,15.20
2022-10-23T06:00:55.302Z,15.05
2022-10-23T06:03:21.648Z,15.06
2022-10-23T06:05:47.988Z,15.12
2022-10-23T06:08:14.347Z,15.11
2022-10-23T06:10:40.695Z,15.21
2022-10-23T06:13:07.065Z,15.09
2022-10-23T06:15:33.407Z,15.06
2022-10-23T06:17:59.802Z,14.75
2022-10-23T06:20:28.010Z,14.82
2022-10-23T06:22:55.232Z,14.95
2022-10-23T06:25:21.607Z,14.98
2022-10-23T06:27:47.955Z,15.04
2022-10-23T06:30:14.319Z,15.07
2022-10-23T06:32:41.238Z,15.17
2022-10-23T06:35:07.899Z,15.26
2022-10-23T06:37:34.281Z,15.28
2022-10-23T06:40:00.661Z,15.33
2022-10-23T06:42:27.025Z,15.33
2022-10-23T06:44:53.393Z,15.36
2022-10-23T06:47:19.771Z,15.38
2022-10-23T06:49:46.135Z,15.45
2022-10-23T06:52:18.512Z,15.44
2022-10-23T06:54:58.885Z,15.46
2022-10-23T06:57:25.251Z,15.53
2022-10-23T06:59:51.600Z,15.63
2022-10-23T07:02:17.988Z,15.69
2022-10-23T07:04:44.326Z,15.77
2022-10-23T07:07:10.708Z,15.81
2022-10-23T07:09:37.061Z,15.96
2022-10-23T07:12:03.421Z,15.99
2022-10-23T07:14:29.773Z,16.07
2022-10-23T07:16:56.133Z,16.13
2022-10-23T07:19:22.489Z,16.15
2022-10-23T07:21:48.838Z,16.12
2022-10-23T07:24:15.192Z,16.19
2022-10-23T07:26:41.607Z,16.24
2022-10-23T07:29:08.056Z,16.21
2022-10-23T07:31:34.410Z,16.11
2022-10-23T07:34:00.779Z,16.19
2022-10-23T07:36:27.138Z,16.20
2022-10-23T07:38:53.506Z,16.06
2022-10-23T07:41:19.864Z,16.18
2022-10-23T07:43:46.211Z,16.35
2022-10-23T07:46:12.561Z,16.23
2022-10-23T07:48:38.953Z,16.11
2022-10-23T07:51:05.293Z,16.14
2022-10-23T07:53:31.657Z,16.16
2022-10-23T07:55:58.034Z,16.24
2022-10-23T07:58:24.412Z,16.19
2022-10-23T08:00:50.775Z,16.31
2022-10-23T08:03:17.119Z,16.13
2022-10-23T08:05:43.489Z,16.25
2022-10-23T08:08:09.923Z,16.01
2022-10-23T08:10:36.262Z,15.89
2022-10-23T08:13:02.652Z,15.98
2022-10-23T08:15:29.015Z,16.10
2022-10-23T08:17:55.373Z,16.24
2022-10-23T08:20:21.740Z,16.11
2022-10-23T08:22:48.083Z,16.10
2022-10-23T08:25:14.491Z,15.97
2022-10-23T08:27:41.141Z,16.12
2022-10-23T08:30:07.771Z,16.31
2022-10-23T08:32:34.124Z,16.51
2022-10-23T08:35:00.482Z,16.50
2022-10-23T08:37:26.831Z,16.51
2022-10-23T08:39:53.428Z,16.68
2022-10-23T08:42:19.903Z,16.96
2022-10-23T08:44:46.283Z,17.00
2022-10-23T08:47:12.638Z,16.92
2022-10-23T08:49:39.000Z,17.07
2022-10-23T08:52:06.507Z,17.12
2022-10-23T08:54:34.487Z,16.98
2022-10-23T08:57:00.835Z,16.81
2022-10-23T08:59:27.194Z,16.80
2022-10-23T09:01:53.648Z,17.02
2022-10-23T09:04:20.048Z,16.89
2022-10-23T09:06:46.391Z,17.14
2022-10-23T09:09:12.743Z,17.47
2022-10-23T09:11:39.099Z,17.30
2022-10-23T09:14:05.467Z,17.87
2022-10-23T09:16:31.822Z,17.63
2022-10-23T09:18:58.184Z,18.16
2022-10-23T09:21:24.569Z,18.46
2022-10-23T09:23:50.917Z,18.59
2022-10-23T09:26:17.278Z,18.19
2022-10-23T09:28:43.664Z,17.87
2022-10-23T09:31:10.024Z,18.19
2022-10-23T09:33:36.372Z,17.98
2022-10-23T09:36:02.728Z,17.99
2022-10-23T09:38:29.098Z,18.27
2022-10-23T09:40:55.450Z,18.38
2022-10-23T09:43:21.826Z,18.44
2022-10-23T09:45:48.201Z,18.25
2022-10-23T09:48:15.137Z,18.11
2022-10-23T09:50:41.517Z,18.13
2022-10-23T09:53:07.859Z,17.98
2022-10-23T09:55:34.229Z,17.75
2022-10-23T09:58:00.601Z,17.72
2022-10-23T10:00:26.969Z,17.42
2022-10-23T10:02:53.363Z,17.37
2022-10-23T10:05:19.806Z,17.56
2022-10-23T10:07:46.214Z,17.09
2022-10-23T10:10:12.575Z,16.96
2022-10-23T10:12:38.918Z,16.87
2022-10-23T10:15:05.267Z,16.47
2022-10-23T10:17:31.620Z,16.76
2022-10-23T10:19:57.968Z,16.48
2022-10-23T10:22:24.343Z,16.75
2022-10-23T10:24:50.689Z,17.10
2022-10-23T10:27:17.082Z,17.21
2022-10-23T10:29:43.445Z,17.24
2022-10-23T10:32:09.802Z,17.04
2022-10-23T10:34:36.197Z,17.08
2022-10-23T10:37:02.561Z,17.48
2022-10-23T10:39:28.947Z,17.31
2022-10-23T10:41:55.343Z,17.69
2022-10-23T10:44:21.692Z,17.66
2022-10-23T10:46:48.035Z,17.60
2022-10-23T10:49:14.398Z,17.25
2022-10-23T10:51:40.781Z,17.15
2022-10-23T10:54:07.142Z,16.90
2022-10-23T10:56:33.490Z,16.76
2022-10-23T10:58:59.833Z,16.14
2022-10-23T11:01:26.317Z,15.95
2022-10-23T11:03:52.747Z,15.74
2022-10-23T11:06:19.099Z,16.11
2022-10-23T11:08:57.207Z,16.63
2022-10-23T11:11:30.305Z,17.12
2022-10-23T11:13:56.650Z,17.08
2022-10-23T11:16:23.009Z,17.20
2022-10-23T11:18:49.364Z,17.00
2022-10-23T11:21:15.781Z,16.78
2022-10-23T11:23:42.150Z,16.95
2022-10-23T11:26:08.534Z,16.92
2022-10-23T11:28:34.898Z,17.09
2022-10-23T11:31:01.277Z,17.51
2022-10-23T11:33:27.653Z,17.60
2022-10-23T11:35:54.024Z,17.65
2022-10-23T11:38:20.443Z,17.71
2022-10-23T11:40:46.852Z,17.83
2022-10-23T11:43:13.248Z,17.75
2022-10-23T11:45:39.587Z,18.13
2022-10-23T11:48:05.943Z,18.35
2022-10-23T11:50:32.323Z,18.02
2022-10-23T11:53:15.602Z,17.85
2022-10-23T11:55:42.554Z,17.31
2022-10-23T11:58:08.913Z,17.08
2022-10-23T12:00:35.270Z,17.08
2022-10-23T12:03:01.702Z,16.95
2022-10-23T12:05:28.138Z,17.13
2022-10-23T12:07:54.506Z,17.31
2022-10-23T12:10:20.864Z,17.42
2022-10-23T12:12:47.298Z,17.45
2022-10-23T12:15:13.678Z,17.39
2022-10-23T12:17:40.181Z,17.54
2022-10-23T12:20:06.631Z,17.79
2022-10-23T12:22:32.974Z,17.85
2022-10-23T12:24:59.339Z,17.62
2022-10-23T12:27:25.733Z,17.44
2022-10-23T12:29:52.073Z,17.69
2022-10-23T12:32:18.456Z,17.73
2022-10-23T12:34:44.792Z,17.54
2022-10-23T12:37:11.157Z,17.91
2022-10-23T12:39:37.524Z,18.06
2022-10-23T12:42:03.902Z,18.16
2022-10-23T12:44:30.278Z,17.97
2022-10-23T12:46:56.640Z,17.85
2022-10-23T12:49:22.997Z,17.94
2022-10-23T12:51:49.358Z,17.96
2022-10-23T12:54:15.746Z,17.48
2022-10-23T12:56:42.093Z,17.25
2022-10-23T12:59:08.459Z,17.40
2022-10-23T13:01:34.944Z,17.48
2022-10-23T13:04:01.399Z,16.86
2022-10-23T13:06:27.750Z,16.94
2022-10-23T13:08:54.108Z,16.78
2022-10-23T13:11:20.469Z,16.64
2022-10-23T13:13:46.824Z,16.95
2022-10-23T13:16:13.160Z,17.05
2022-10-23T13:18:39.526Z,16.92
2022-10-23T13:21:05.882Z,16.86
2022-10-23T13:23:32.251Z,16.94
2022-10-23T13:25:58.602Z,17.02
2022-10-23T13:28:25.013Z,16.92
2022-10-23T13:30:51.361Z,17.12
2022-10-23T13:33:17.721Z,17.12
2022-10-23T13:35:44.085Z,17.13
2022-10-23T13:38:10.445Z,17.08
2022-10-23T13:40:36.817Z,17.22
2022-10-23T13:43:03.175Z,17.26
2022-10-23T13:45:29.531Z,17.41
2022-10-23T13:47:55.864Z,17.33
2022-10-23T13:50:22.248Z,17.39
2022-10-23T13:52:48.610Z,17.59
2022-10-23T13:55:14.960Z,17.28
2022-10-23T13:57:41.560Z,17.47
2022-10-23T14:00:08.088Z,17.52
2022-10-23T14:02:34.488Z,17.70
2022-10-23T14:05:00.899Z,17.95
2022-10-23T14:07:27.245Z,18.10
2022-10-23T14:09:53.593Z,18.17
2022-10-23T14:12:19.969Z,18.16
2022-10-23T14:14:46.328Z,17.83
2022-10-23T14:17:12.687Z,17.98
2022-10-23T14:19:39.043Z,17.78
2022-10-23T14:22:05.402Z,17.49
2022-10-23T14:24:31.757Z,17.75
2022-10-23T14:26:58.094Z,17.52
2022-10-23T14:29:24.686Z,17.61
2022-10-23T14:31:51.079Z,17.62
2022-10-23T14:34:17.491Z,17.40
2022-10-23T14:36:50.184Z,17.36
2022-10-23T14:39:22.949Z,17.54
2022-10-23T14:41:49.309Z,17.57
2022-10-23T14:44:15.664Z,17.26
2022-10-23T14:46:42.029Z,17.37
2022-10-23T14:49:08.372Z,17.35
2022-10-23T14:51:34.745Z,17.08
2022-10-23T14:54:01.102Z,16.89
2022-10-23T14:56:27.520Z,16.78
2022-10-23T14:58:53.863Z,16.89
2022-10-23T15:01:20.349Z,16.97
2022-10-23T15:03:46.813Z,17.17
2022-10-23T15:06:17.525Z,17.23
2022-10-23T15:08:44.775Z,17.29
2022-10-23T15:11:12.640Z,17.06
2022-10-23T15:13:39.278Z,17.12
2022-10-23T15:16:05.631Z,17.20
2022-10-23T15:18:32.026Z,17.17
2022-10-23T15:20:58.411Z,17.31
2022-10-23T15:23:24.784Z,17.32
2022-10-23T15:25:51.159Z,17.39
2022-10-23T15:28:17.513Z,17.43
2022-10-23T15:30:43.891Z,16.89
2022-10-23T15:33:10.253Z,16.84
2022-10-23T15:35:36.608Z,16.91
2022-10-23T15:38:02.971Z,17.08
2022-10-23T15:40:29.334Z,17.05
2022-10-23T15:42:55.695Z,17.23
2022-10-23T15:45:22.059Z,17.26
2022-10-23T15:47:48.402Z,17.38
2022-10-23T15:50:14.764Z,17.46
2022-10-23T15:52:41.232Z,17.64
2022-10-23T15:55:07.837Z,17.66
2022-10-23T15:57:34.190Z,17.77
2022-10-23T16:00:00.674Z,17.93
2022-10-23T16:02:27.173Z,18.11
2022-10-23T16:04:53.676Z,18.26
2022-10-23T16:07:20.107Z,18.38
2022-10-23T16:09:46.446Z,18.47
2022-10-23T16:12:12.830Z,18.38
2022-10-23T16:14:39.184Z,18.28
2022-10-23T16:17:05.583Z,18.34
2022-10-23T16:19:31.978Z,18.33
2022-10-23T16:21:58.354Z,18.14
2022-10-23T16:24:24.725Z,18.08
2022-10-23T16:26:51.064Z,17.98
2022-10-23T16:29:17.419Z,17.98
2022-10-23T16:31:43.781Z,18.02
2022-10-23T16:34:10.131Z,17.97
2022-10-23T16:36:36.482Z,17.92
2022-10-23T16:39:02.820Z,17.92
2022-10-23T16:41:29.183Z,18.00
2022-10-23T16:43:55.545Z,17.81
2022-10-23T16:46:21.925Z,17.80
2022-10-23T16:48:48.291Z,17.89
2022-10-23T16:51:14.654Z,17.82
2022-10-23T16:53:40.990Z,17.73
2022-10-23T16:56:07.333Z,17.66
2022-10-23T16:58:33.708Z,17.58
2022-10-23T17:01:00.206Z,17.52
2022-10-23T17:03:26.668Z,17.33
2022-10-23T17:05:53.026Z,17.39
2022-10-23T17:08:19.394Z,17.37
2022-10-23T17:10:45.759Z,17.53
2022-10-23T17:13:12.099Z,17.56
2022-10-23T17:18:09.725Z,17.79
2022-10-23T17:20:36.094Z,17.74
2022-10-23T17:23:02.439Z,17.64
2022-10-23T17:25:28.816Z,17.58
2022-10-23T17:27:55.186Z,17.44
2022-10-23T17:30:21.540Z,17.44
2022-10-23T17:32:47.997Z,17.14
2022-10-23T17:35:14.383Z,17.18
2022-10-23T17:37:40.743Z,17.31
2022-10-23T17:40:07.110Z,17.33
2022-10-23T17:42:33.469Z,17.25
2022-10-23T17:44:59.829Z,17.26
2022-10-23T17:47:26.221Z,17.10
2022-10-23T17:49:52.572Z,17.20
2022-10-23T17:52:18.937Z,17.12
2022-10-23T17:54:45.278Z,17.14
2022-10-23T17:57:11.700Z,17.06
2022-10-23T17:59:38.125Z,16.83
2022-10-23T18:02:04.550Z,16.86
2022-10-23T18:04:30.995Z,16.94
2022-10-23T18:06:57.353Z,16.98
2022-10-23T18:09:23.712Z,17.10
2022-10-23T18:11:50.076Z,17.07
2022-10-23T18:14:16.475Z,17.11
2022-10-23T18:16:42.832Z,17.33
2022-10-23T18:19:09.175Z,17.31
2022-10-23T18:21:35.530Z,17.27
2022-10-23T18:24:01.879Z,17.23
2022-10-23T18:26:28.235Z,17.23
2022-10-23T18:28:54.597Z,17.07
2022-10-23T18:31:20.957Z,16.99
2022-10-23T18:33:47.327Z,16.91
2022-10-23T18:36:13.685Z,17.11
2022-10-23T18:38:40.036Z,17.08
2022-10-23T18:41:06.450Z,17.19
2022-10-23T18:43:43.091Z,17.24
2022-10-23T18:46:10.317Z,17.40
2022-10-23T18:48:36.729Z,17.64
2022-10-23T18:51:03.099Z,17.44
2022-10-23T18:53:29.486Z,17.42
2022-10-23T18:55:55.860Z,17.39
2022-10-23T18:58:22.249Z,17.42
2022-10-23T19:00:48.612Z,17.06
2022-10-23T19:03:15.048Z,16.95
2022-10-23T19:05:41.415Z,16.94
2022-10-23T19:08:07.809Z,16.89
2022-10-23T19:10:34.213Z,16.94
2022-10-23T19:13:00.593Z,17.13
2022-10-23T19:15:26.951Z,17.20
2022-10-23T19:17:53.303Z,17.47
2022-10-23T19:20:19.730Z,17.14
2022-10-23T19:22:46.383Z,17.31
2022-10-23T19:25:13.183Z,17.20
2022-10-23T19:27:39.559Z,17.30
2022-10-23T19:30:06.020Z,17.24
2022-10-23T19:32:32.393Z,17.16
2022-10-23T19:34:58.796Z,17.16
2022-10-23T19:37:25.227Z,17.27
2022-10-23T19:39:51.588Z,17.09
2022-10-23T19:42:20.098Z,17.10
2022-10-23T19:44:46.468Z,17.16
2022-10-23T19:47:12.830Z,17.14
2022-10-23T19:49:39.186Z,17.20
2022-10-23T19:52:05.541Z,17.24
2022-10-23T19:54:31.920Z,17.36
2022-10-23T19:56:58.312Z,17.35
2022-10-23T19:59:24.659Z,17.45
2022-10-23T20:01:51.165Z,17.49
2022-10-23T20:04:17.582Z,17.70
2022-10-23T20:06:43.942Z,17.85
2022-10-23T20:09:10.302Z,17.86
2022-10-23T20:11:36.665Z,18.02
2022-10-23T20:14:03.042Z,17.93
2022-10-23T20:16:29.407Z,18.00
2022-10-23T20:18:55.759Z,18.00
2022-10-23T20:21:22.137Z,17.86
2022-10-23T20:23:48.505Z,17.85
2022-10-23T20:26:14.870Z,18.00
2022-10-23T20:28:41.226Z,18.00
2022-10-23T20:31:07.584Z,17.88
2022-10-23T20:33:33.947Z,17.84
2022-10-23T20:36:00.288Z,17.91
2022-10-23T20:38:26.690Z,17.95
2022-10-23T20:40:53.063Z,18.11
2022-10-23T20:43:19.429Z,18.19
2022-10-23T20:45:45.792Z,18.13
2022-10-23T20:48:12.141Z,18.13
2022-10-23T20:50:38.516Z,18.06
2022-10-23T20:53:04.876Z,18.10
2022-10-23T20:55:31.250Z,18.17
2022-10-23T20:57:57.610Z,18.14
2022-10-23T21:00:23.969Z,18.00
2022-10-23T21:02:52.676Z,17.84
2022-10-23T21:05:19.276Z,17.76
2022-10-23T21:07:45.650Z,17.86
2022-10-23T21:10:12.010Z,17.87
2022-10-23T21:12:38.377Z,17.90
2022-10-23T21:15:04.723Z,17.96
2022-10-23T21:19:58.344Z,18.15
2022-10-23T21:22:24.712Z,18.19
2022-10-23T21:24:51.081Z,18.15
2022-10-23T21:27:17.425Z,18.13
2022-10-23T21:29:43.774Z,18.10
2022-10-23T21:32:10.119Z,18.10
2022-10-23T21:34:36.478Z,18.07
2022-10-23T21:37:18.120Z,18.08
2022-10-23T21:39:44.520Z,18.00
2022-10-23T21:42:10.874Z,17.77
2022-10-23T21:44:37.243Z,17.73
2022-10-23T21:47:03.634Z,17.89
2022-10-23T21:49:29.979Z,18.00
2022-10-23T21:51:56.333Z,18.04
2022-10-23T21:54:22.687Z,17.84
2022-10-23T21:56:49.062Z,18.04
2022-10-23T21:59:15.411Z,18.01
2022-10-23T22:01:41.854Z,17.62
2022-10-23T22:04:08.288Z,17.50
2022-10-23T22:06:34.642Z,17.51
2022-10-23T22:09:00.997Z,17.58
2022-10-23T22:11:27.358Z,17.54
2022-10-23T22:13:53.712Z,17.53
2022-10-23T22:16:20.074Z,17.62
2022-10-23T22:18:46.864Z,17.73
2022-10-23T22:21:13.228Z,17.87
2022-10-23T22:23:39.576Z,17.79
2022-10-23T22:26:05.981Z,17.67
2022-10-23T22:28:32.345Z,17.67
2022-10-23T22:30:58.708Z,17.42
2022-10-23T22:33:25.167Z,17.28
2022-10-23T22:35:51.527Z,17.27
2022-10-23T22:38:17.880Z,17.00
2022-10-23T22:40:46.642Z,16.48
2022-10-23T22:43:13.210Z,16.18
2022-10-23T22:45:39.577Z,15.84
